sensor_id;sensor_type;location;lat;lon;timestamp;temperature;humidity
45319;DHT22;31057;48.498;32.260;2023-02-19T00:00:57;3.50;99.90
45319;DHT22;31057;48.498;32.260;2023-02-19T00:02:59;3.50;99.90
45319;DHT22;31057;48.498;32.260;2023-02-19T00:05:03;3.40;99.90
45319;DHT22;31057;48.498;32.260;2023-02-19T00:07:05;3.40;99.90
45319;DHT22;31057;48.498;32.260;2023-02-19T00:09:08;3.50;99.90
45319;DHT22;31057;48.498;32.260;2023-02-19T00:11:12;3.50;99.90
45319;DHT22;31057;48.498;32.260;2023-02-19T00:13:15;3.70;99.90
45319;DHT22;31057;48.498;32.260;2023-02-19T00:15:17;3.60;99.90
45319;DHT22;31057;48.498;32.260;2023-02-19T00:17:19;3.60;99.90
45319;DHT22;31057;48.498;32.260;2023-02-19T00:19:20;3.60;99.90
45319;DHT22;31057;48.498;32.260;2023-02-19T00:21:22;3.60;99.90
45319;DHT22;31057;48.498;32.260;2023-02-19T00:23:26;3.60;99.90
45319;DHT22;31057;48.498;32.260;2023-02-19T00:25:29;3.60;99.90
45319;DHT22;31057;48.498;32.260;2023-02-19T00:27:31;3.60;99.90
45319;DHT22;31057;48.498;32.260;2023-02-19T00:29:33;3.80;99.90
45319;DHT22;31057;48.498;32.260;2023-02-19T00:31:35;3.80;99.90
45319;DHT22;31057;48.498;32.260;2023-02-19T00:33:37;3.70;99.90
45319;DHT22;31057;48.498;32.260;2023-02-19T00:35:39;3.60;99.90
45319;DHT22;31057;48.498;32.260;2023-02-19T00:37:41;3.60;99.90
45319;DHT22;31057;48.498;32.260;2023-02-19T00:39:43;3.50;99.90
45319;DHT22;31057;48.498;32.260;2023-02-19T00:41:45;3.50;99.90
45319;DHT22;31057;48.498;32.260;2023-02-19T00:45:53;3.40;99.90
45319;DHT22;31057;48.498;32.260;2023-02-19T00:47:55;3.50;99.90
45319;DHT22;31057;48.498;32.260;2023-02-19T00:49:57;3.50;99.90
45319;DHT22;31057;48.498;32.260;2023-02-19T00:51:59;3.50;99.90
45319;DHT22;31057;48.498;32.260;2023-02-19T00:54:01;3.40;99.90
45319;DHT22;31057;48.498;32.260;2023-02-19T00:56:04;3.50;99.90
45319;DHT22;31057;48.498;32.260;2023-02-19T00:58:07;3.40;99.90
45319;DHT22;31057;48.498;32.260;2023-02-19T01:00:10;3.40;99.90
45319;DHT22;31057;48.498;32.260;2023-02-19T01:02:12;3.40;99.90
45319;DHT22;31057;48.498;32.260;2023-02-19T01:04:14;3.40;99.90
45319;DHT22;31057;48.498;32.260;2023-02-19T01:06:18;3.40;99.90
45319;DHT22;31057;48.498;32.260;2023-02-19T01:08:20;3.50;99.90
45319;DHT22;31057;48.498;32.260;2023-02-19T01:10:22;3.40;99.90
45319;DHT22;31057;48.498;32.260;2023-02-19T01:12:24;3.40;99.90
45319;DHT22;31057;48.498;32.260;2023-02-19T01:14:28;3.40;99.90
45319;DHT22;31057;48.498;32.260;2023-02-19T01:16:31;3.30;99.90
45319;DHT22;31057;48.498;32.260;2023-02-19T01:18:33;3.30;99.90
45319;DHT22;31057;48.498;32.260;2023-02-19T01:20:38;3.40;99.90
45319;DHT22;31057;48.498;32.260;2023-02-19T01:22:41;3.40;99.90
45319;DHT22;31057;48.498;32.260;2023-02-19T01:24:43;3.50;99.90
45319;DHT22;31057;48.498;32.260;2023-02-19T01:26:45;3.50;99.90
45319;DHT22;31057;48.498;32.260;2023-02-19T01:28:47;3.50;99.90
45319;DHT22;31057;48.498;32.260;2023-02-19T01:30:49;3.40;99.90
45319;DHT22;31057;48.498;32.260;2023-02-19T01:32:50;3.40;99.90
45319;DHT22;31057;48.498;32.260;2023-02-19T01:34:52;3.40;99.90
45319;DHT22;31057;48.498;32.260;2023-02-19T01:36:54;3.40;99.90
45319;DHT22;31057;48.498;32.260;2023-02-19T01:38:59;3.40;99.90
45319;DHT22;31057;48.498;32.260;2023-02-19T01:41:04;3.50;99.90
45319;DHT22;31057;48.498;32.260;2023-02-19T01:43:15;3.70;99.90
45319;DHT22;31057;48.498;32.260;2023-02-19T01:45:23;3.60;99.90
45319;DHT22;31057;48.498;32.260;2023-02-19T01:47:25;3.40;99.90
45319;DHT22;31057;48.498;32.260;2023-02-19T01:49:29;3.40;99.90
45319;DHT22;31057;48.498;32.260;2023-02-19T01:51:35;3.50;99.90
45319;DHT22;31057;48.498;32.260;2023-02-19T01:53:41;3.50;99.90
45319;DHT22;31057;48.498;32.260;2023-02-19T01:55:45;3.50;99.90
45319;DHT22;31057;48.498;32.260;2023-02-19T01:57:51;3.60;99.90
45319;DHT22;31057;48.498;32.260;2023-02-19T01:59:57;3.60;99.90
45319;DHT22;31057;48.498;32.260;2023-02-19T02:02:02;3.60;99.90
45319;DHT22;31057;48.498;32.260;2023-02-19T02:04:05;3.70;99.90
45319;DHT22;31057;48.498;32.260;2023-02-19T02:06:25;3.70;99.90
45319;DHT22;31057;48.498;32.260;2023-02-19T02:08:29;3.70;99.90
45319;DHT22;31057;48.498;32.260;2023-02-19T02:10:51;3.70;99.90
45319;DHT22;31057;48.498;32.260;2023-02-19T02:12:56;3.70;99.90
45319;DHT22;31057;48.498;32.260;2023-02-19T02:14:58;3.70;99.90
45319;DHT22;31057;48.498;32.260;2023-02-19T02:17:44;3.80;99.90
45319;DHT22;31057;48.498;32.260;2023-02-19T02:23:50;3.80;99.90
45319;DHT22;31057;48.498;32.260;2023-02-19T02:26:03;3.80;99.90
45319;DHT22;31057;48.498;32.260;2023-02-19T02:28:34;3.80;99.90
45319;DHT22;31057;48.498;32.260;2023-02-19T02:35:33;3.70;99.90
45319;DHT22;31057;48.498;32.260;2023-02-19T02:37:38;3.80;99.90
45319;DHT22;31057;48.498;32.260;2023-02-19T02:39:41;3.70;99.90
45319;DHT22;31057;48.498;32.260;2023-02-19T02:41:50;3.50;99.90
45319;DHT22;31057;48.498;32.260;2023-02-19T02:44:15;3.40;99.90
45319;DHT22;31057;48.498;32.260;2023-02-19T02:46:23;3.40;99.90
45319;DHT22;31057;48.498;32.260;2023-02-19T02:53:07;3.30;99.90
45319;DHT22;31057;48.498;32.260;2023-02-19T02:55:36;3.20;99.90
45319;DHT22;31057;48.498;32.260;2023-02-19T02:57:39;3.20;99.90
45319;DHT22;31057;48.498;32.260;2023-02-19T02:59:42;3.10;99.90
45319;DHT22;31057;48.498;32.260;2023-02-19T03:01:49;3.10;99.90
45319;DHT22;31057;48.498;32.260;2023-02-19T03:04:14;3.00;99.90
45319;DHT22;31057;48.498;32.260;2023-02-19T03:06:21;3.00;99.90
45319;DHT22;31057;48.498;32.260;2023-02-19T03:10:34;3.10;99.90
45319;DHT22;31057;48.498;32.260;2023-02-19T03:12:39;2.90;99.90
45319;DHT22;31057;48.498;32.260;2023-02-19T03:15:03;2.90;99.90
45319;DHT22;31057;48.498;32.260;2023-02-19T03:17:41;2.90;99.90
45319;DHT22;31057;48.498;32.260;2023-02-19T03:20:08;2.90;99.90
45319;DHT22;31057;48.498;32.260;2023-02-19T03:22:15;2.80;99.90
45319;DHT22;31057;48.498;32.260;2023-02-19T03:24:22;2.80;99.90
45319;DHT22;31057;48.498;32.260;2023-02-19T03:26:44;2.80;99.90
45319;DHT22;31057;48.498;32.260;2023-02-19T03:28:55;2.80;99.90
45319;DHT22;31057;48.498;32.260;2023-02-19T03:31:20;2.90;99.90
45319;DHT22;31057;48.498;32.260;2023-02-19T03:33:25;2.80;99.90
45319;DHT22;31057;48.498;32.260;2023-02-19T03:35:30;2.80;99.90
45319;DHT22;31057;48.498;32.260;2023-02-19T03:37:46;2.80;99.90
45319;DHT22;31057;48.498;32.260;2023-02-19T03:39:52;2.80;99.90
45319;DHT22;31057;48.498;32.260;2023-02-19T03:44:12;2.70;99.90
45319;DHT22;31057;48.498;32.260;2023-02-19T03:46:35;2.70;99.90
45319;DHT22;31057;48.498;32.260;2023-02-19T03:48:50;2.80;99.90
45319;DHT22;31057;48.498;32.260;2023-02-19T03:53:14;2.70;99.90
45319;DHT22;31057;48.498;32.260;2023-02-19T03:55:31;2.70;99.90
45319;DHT22;31057;48.498;32.260;2023-02-19T04:00:05;2.70;99.90
45319;DHT22;31057;48.498;32.260;2023-02-19T04:02:18;2.70;99.90
45319;DHT22;31057;48.498;32.260;2023-02-19T04:04:32;2.70;99.90
45319;DHT22;31057;48.498;32.260;2023-02-19T04:06:36;2.70;99.90
45319;DHT22;31057;48.498;32.260;2023-02-19T04:08:43;2.70;99.90
45319;DHT22;31057;48.498;32.260;2023-02-19T04:10:46;2.60;99.90
45319;DHT22;31057;48.498;32.260;2023-02-19T04:12:54;2.60;99.90
45319;DHT22;31057;48.498;32.260;2023-02-19T04:15:08;2.70;99.90
45319;DHT22;31057;48.498;32.260;2023-02-19T04:17:21;2.70;99.90
45319;DHT22;31057;48.498;32.260;2023-02-19T04:19:25;2.70;99.90
45319;DHT22;31057;48.498;32.260;2023-02-19T04:21:29;2.70;99.90
45319;DHT22;31057;48.498;32.260;2023-02-19T04:23:37;2.70;99.90
45319;DHT22;31057;48.498;32.260;2023-02-19T04:25:42;2.70;99.90
45319;DHT22;31057;48.498;32.260;2023-02-19T04:27:45;2.70;99.90
45319;DHT22;31057;48.498;32.260;2023-02-19T04:29:47;2.60;99.90
45319;DHT22;31057;48.498;32.260;2023-02-19T04:31:49;2.70;99.90
45319;DHT22;31057;48.498;32.260;2023-02-19T04:33:51;2.70;99.90
45319;DHT22;31057;48.498;32.260;2023-02-19T04:35:52;2.70;99.90
45319;DHT22;31057;48.498;32.260;2023-02-19T04:37:54;2.60;99.90
45319;DHT22;31057;48.498;32.260;2023-02-19T04:39:56;2.70;99.90
45319;DHT22;31057;48.498;32.260;2023-02-19T04:41:58;2.70;99.90
45319;DHT22;31057;48.498;32.260;2023-02-19T04:44:00;2.70;99.90
45319;DHT22;31057;48.498;32.260;2023-02-19T04:46:02;2.70;99.90
45319;DHT22;31057;48.498;32.260;2023-02-19T04:48:04;2.60;99.90
45319;DHT22;31057;48.498;32.260;2023-02-19T04:50:06;2.60;99.90
45319;DHT22;31057;48.498;32.260;2023-02-19T04:52:09;2.70;99.90
45319;DHT22;31057;48.498;32.260;2023-02-19T04:54:10;2.60;99.90
45319;DHT22;31057;48.498;32.260;2023-02-19T04:56:14;2.60;99.90
45319;DHT22;31057;48.498;32.260;2023-02-19T04:58:16;2.60;99.90
45319;DHT22;31057;48.498;32.260;2023-02-19T05:00:18;2.60;99.90
45319;DHT22;31057;48.498;32.260;2023-02-19T05:02:20;2.60;99.90
45319;DHT22;31057;48.498;32.260;2023-02-19T05:04:22;2.60;99.90
45319;DHT22;31057;48.498;32.260;2023-02-19T05:06:24;2.60;99.90
45319;DHT22;31057;48.498;32.260;2023-02-19T05:08:26;2.60;99.90
45319;DHT22;31057;48.498;32.260;2023-02-19T05:10:28;2.60;99.90
45319;DHT22;31057;48.498;32.260;2023-02-19T05:12:30;2.60;99.90
45319;DHT22;31057;48.498;32.260;2023-02-19T05:14:32;2.60;99.90
45319;DHT22;31057;48.498;32.260;2023-02-19T05:16:34;2.60;99.90
45319;DHT22;31057;48.498;32.260;2023-02-19T05:18:36;2.60;99.90
45319;DHT22;31057;48.498;32.260;2023-02-19T05:20:37;2.60;99.90
45319;DHT22;31057;48.498;32.260;2023-02-19T05:22:39;2.60;99.90
45319;DHT22;31057;48.498;32.260;2023-02-19T05:24:41;2.60;99.90
45319;DHT22;31057;48.498;32.260;2023-02-19T05:26:43;2.60;99.90
45319;DHT22;31057;48.498;32.260;2023-02-19T05:28:48;2.60;99.90
45319;DHT22;31057;48.498;32.260;2023-02-19T05:30:51;2.60;99.90
45319;DHT22;31057;48.498;32.260;2023-02-19T05:32:53;2.60;99.90
45319;DHT22;31057;48.498;32.260;2023-02-19T05:34:55;2.50;99.90
45319;DHT22;31057;48.498;32.260;2023-02-19T05:36:57;2.50;99.90
45319;DHT22;31057;48.498;32.260;2023-02-19T05:38:59;2.60;99.90
45319;DHT22;31057;48.498;32.260;2023-02-19T05:43:16;2.50;99.90
45319;DHT22;31057;48.498;32.260;2023-02-19T05:45:17;2.50;99.90
45319;DHT22;31057;48.498;32.260;2023-02-19T05:47:19;2.50;99.90
45319;DHT22;31057;48.498;32.260;2023-02-19T05:49:21;2.50;99.90
45319;DHT22;31057;48.498;32.260;2023-02-19T05:51:24;2.60;99.90
45319;DHT22;31057;48.498;32.260;2023-02-19T05:53:27;2.60;99.90
45319;DHT22;31057;48.498;32.260;2023-02-19T05:55:33;2.60;99.90
45319;DHT22;31057;48.498;32.260;2023-02-19T05:57:40;2.70;99.90
45319;DHT22;31057;48.498;32.260;2023-02-19T05:59:44;2.70;99.90
45319;DHT22;31057;48.498;32.260;2023-02-19T06:01:47;2.70;99.90
45319;DHT22;31057;48.498;32.260;2023-02-19T06:03:49;2.70;99.90
45319;DHT22;31057;48.498;32.260;2023-02-19T06:05:51;2.70;99.90
45319;DHT22;31057;48.498;32.260;2023-02-19T06:07:52;2.80;99.90
45319;DHT22;31057;48.498;32.260;2023-02-19T06:09:54;2.80;99.90
45319;DHT22;31057;48.498;32.260;2023-02-19T06:11:56;2.90;99.90
45319;DHT22;31057;48.498;32.260;2023-02-19T06:13:58;2.90;99.90
45319;DHT22;31057;48.498;32.260;2023-02-19T06:16:04;3.00;99.90
45319;DHT22;31057;48.498;32.260;2023-02-19T06:18:06;3.00;99.90
45319;DHT22;31057;48.498;32.260;2023-02-19T06:20:08;3.00;99.90
45319;DHT22;31057;48.498;32.260;2023-02-19T06:22:12;3.10;99.90
45319;DHT22;31057;48.498;32.260;2023-02-19T06:24:14;3.20;99.90
45319;DHT22;31057;48.498;32.260;2023-02-19T06:26:21;3.20;99.90
45319;DHT22;31057;48.498;32.260;2023-02-19T06:28:23;3.20;99.90
45319;DHT22;31057;48.498;32.260;2023-02-19T06:30:25;3.30;99.90
45319;DHT22;31057;48.498;32.260;2023-02-19T06:32:27;3.30;99.90
45319;DHT22;31057;48.498;32.260;2023-02-19T06:34:29;3.40;99.90
45319;DHT22;31057;48.498;32.260;2023-02-19T06:36:31;3.50;99.90
45319;DHT22;31057;48.498;32.260;2023-02-19T06:38:33;3.50;99.90
45319;DHT22;31057;48.498;32.260;2023-02-19T06:40:35;3.50;99.90
45319;DHT22;31057;48.498;32.260;2023-02-19T06:42:37;3.60;99.90
45319;DHT22;31057;48.498;32.260;2023-02-19T06:44:39;3.60;99.90
45319;DHT22;31057;48.498;32.260;2023-02-19T06:46:41;3.70;99.90
45319;DHT22;31057;48.498;32.260;2023-02-19T06:48:43;3.70;99.90
45319;DHT22;31057;48.498;32.260;2023-02-19T06:50:45;3.80;99.90
45319;DHT22;31057;48.498;32.260;2023-02-19T06:52:47;3.80;99.90
45319;DHT22;31057;48.498;32.260;2023-02-19T06:54:49;3.80;99.90
45319;DHT22;31057;48.498;32.260;2023-02-19T06:56:51;3.70;99.90
45319;DHT22;31057;48.498;32.260;2023-02-19T06:58:54;3.70;99.90
45319;DHT22;31057;48.498;32.260;2023-02-19T07:00:56;3.70;99.90
45319;DHT22;31057;48.498;32.260;2023-02-19T07:02:59;3.60;99.90
45319;DHT22;31057;48.498;32.260;2023-02-19T07:05:01;3.70;99.90
45319;DHT22;31057;48.498;32.260;2023-02-19T07:07:03;3.60;99.90
45319;DHT22;31057;48.498;32.260;2023-02-19T07:09:06;3.60;99.90
45319;DHT22;31057;48.498;32.260;2023-02-19T07:11:08;3.70;99.90
45319;DHT22;31057;48.498;32.260;2023-02-19T07:13:11;3.70;99.90
45319;DHT22;31057;48.498;32.260;2023-02-19T07:15:13;3.80;99.90
45319;DHT22;31057;48.498;32.260;2023-02-19T07:17:15;3.80;99.90
45319;DHT22;31057;48.498;32.260;2023-02-19T07:19:17;3.90;99.90
45319;DHT22;31057;48.498;32.260;2023-02-19T07:21:19;4.00;99.90
45319;DHT22;31057;48.498;32.260;2023-02-19T07:23:20;4.10;99.90
45319;DHT22;31057;48.498;32.260;2023-02-19T07:25:22;4.20;99.90
45319;DHT22;31057;48.498;32.260;2023-02-19T07:27:24;4.30;99.90
45319;DHT22;31057;48.498;32.260;2023-02-19T07:29:26;4.30;99.90
45319;DHT22;31057;48.498;32.260;2023-02-19T07:31:28;4.30;99.90
45319;DHT22;31057;48.498;32.260;2023-02-19T07:33:30;4.40;99.90
45319;DHT22;31057;48.498;32.260;2023-02-19T07:35:32;4.40;99.90
45319;DHT22;31057;48.498;32.260;2023-02-19T07:37:34;4.50;99.90
45319;DHT22;31057;48.498;32.260;2023-02-19T07:39:36;4.60;99.90
45319;DHT22;31057;48.498;32.260;2023-02-19T07:41:38;4.50;99.90
45319;DHT22;31057;48.498;32.260;2023-02-19T07:43:40;4.80;99.90
45319;DHT22;31057;48.498;32.260;2023-02-19T07:45:42;4.40;99.90
45319;DHT22;31057;48.498;32.260;2023-02-19T07:47:46;4.40;99.90
45319;DHT22;31057;48.498;32.260;2023-02-19T07:49:48;4.50;99.90
45319;DHT22;31057;48.498;32.260;2023-02-19T07:51:50;4.60;99.90
45319;DHT22;31057;48.498;32.260;2023-02-19T07:53:52;4.50;99.90
45319;DHT22;31057;48.498;32.260;2023-02-19T07:56:01;4.70;99.90
45319;DHT22;31057;48.498;32.260;2023-02-19T07:58:03;4.90;99.90
45319;DHT22;31057;48.498;32.260;2023-02-19T08:00:07;4.80;99.90
45319;DHT22;31057;48.498;32.260;2023-02-19T08:02:16;5.00;99.90
45319;DHT22;31057;48.498;32.260;2023-02-19T08:04:36;5.20;99.90
45319;DHT22;31057;48.498;32.260;2023-02-19T08:06:39;5.10;99.90
45319;DHT22;31057;48.498;32.260;2023-02-19T08:08:42;5.10;99.90
45319;DHT22;31057;48.498;32.260;2023-02-19T08:10:43;5.20;99.90
45319;DHT22;31057;48.498;32.260;2023-02-19T08:13:04;5.10;99.90
45319;DHT22;31057;48.498;32.260;2023-02-19T08:15:23;5.10;99.90
45319;DHT22;31057;48.498;32.260;2023-02-19T08:17:25;5.30;99.90
45319;DHT22;31057;48.498;32.260;2023-02-19T08:19:27;5.50;99.90
45319;DHT22;31057;48.498;32.260;2023-02-19T08:21:30;5.70;99.90
45319;DHT22;31057;48.498;32.260;2023-02-19T08:23:35;5.50;99.90
45319;DHT22;31057;48.498;32.260;2023-02-19T08:25:37;5.30;99.90
45319;DHT22;31057;48.498;32.260;2023-02-19T08:27:39;5.40;99.90
45319;DHT22;31057;48.498;32.260;2023-02-19T08:29:41;5.80;99.90
45319;DHT22;31057;48.498;32.260;2023-02-19T08:31:43;5.50;99.90
45319;DHT22;31057;48.498;32.260;2023-02-19T08:33:45;5.60;99.90
45319;DHT22;31057;48.498;32.260;2023-02-19T08:35:47;5.40;99.90
45319;DHT22;31057;48.498;32.260;2023-02-19T08:37:49;5.60;99.90
45319;DHT22;31057;48.498;32.260;2023-02-19T08:39:51;5.80;99.90
45319;DHT22;31057;48.498;32.260;2023-02-19T08:41:53;5.90;99.90
45319;DHT22;31057;48.498;32.260;2023-02-19T08:43:55;5.70;99.90
45319;DHT22;31057;48.498;32.260;2023-02-19T08:45:57;5.40;99.90
45319;DHT22;31057;48.498;32.260;2023-02-19T08:47:59;5.60;99.90
45319;DHT22;31057;48.498;32.260;2023-02-19T08:50:01;5.80;99.90
45319;DHT22;31057;48.498;32.260;2023-02-19T08:52:05;5.70;99.90
45319;DHT22;31057;48.498;32.260;2023-02-19T08:54:07;5.50;99.90
45319;DHT22;31057;48.498;32.260;2023-02-19T08:56:14;5.50;99.90
45319;DHT22;31057;48.498;32.260;2023-02-19T08:58:17;5.60;99.90
45319;DHT22;31057;48.498;32.260;2023-02-19T09:00:19;5.70;99.90
45319;DHT22;31057;48.498;32.260;2023-02-19T09:02:25;5.70;99.90
45319;DHT22;31057;48.498;32.260;2023-02-19T09:04:27;5.90;99.90
45319;DHT22;31057;48.498;32.260;2023-02-19T09:06:30;5.90;99.90
45319;DHT22;31057;48.498;32.260;2023-02-19T09:08:32;5.60;99.90
45319;DHT22;31057;48.498;32.260;2023-02-19T09:10:35;5.80;99.90
45319;DHT22;31057;48.498;32.260;2023-02-19T09:12:38;6.00;99.90
45319;DHT22;31057;48.498;32.260;2023-02-19T09:14:41;5.80;99.90
45319;DHT22;31057;48.498;32.260;2023-02-19T09:16:43;6.00;99.90
45319;DHT22;31057;48.498;32.260;2023-02-19T09:18:45;5.90;99.90
45319;DHT22;31057;48.498;32.260;2023-02-19T09:20:47;5.80;99.90
45319;DHT22;31057;48.498;32.260;2023-02-19T09:22:49;5.90;99.90
45319;DHT22;31057;48.498;32.260;2023-02-19T09:24:56;6.20;99.90
45319;DHT22;31057;48.498;32.260;2023-02-19T09:26:59;6.50;99.90
45319;DHT22;31057;48.498;32.260;2023-02-19T09:29:01;6.20;99.90
45319;DHT22;31057;48.498;32.260;2023-02-19T09:31:05;5.90;99.90
45319;DHT22;31057;48.498;32.260;2023-02-19T09:33:08;6.00;99.90
45319;DHT22;31057;48.498;32.260;2023-02-19T09:35:11;6.20;99.90
45319;DHT22;31057;48.498;32.260;2023-02-19T09:37:13;6.10;99.90
45319;DHT22;31057;48.498;32.260;2023-02-19T09:39:15;6.20;99.90
45319;DHT22;31057;48.498;32.260;2023-02-19T09:41:25;6.30;99.90
45319;DHT22;31057;48.498;32.260;2023-02-19T09:43:29;5.70;99.90
45319;DHT22;31057;48.498;32.260;2023-02-19T09:45:34;5.90;99.90
45319;DHT22;31057;48.498;32.260;2023-02-19T09:47:36;6.20;99.90
45319;DHT22;31057;48.498;32.260;2023-02-19T09:49:39;6.10;99.90
45319;DHT22;31057;48.498;32.260;2023-02-19T09:51:50;6.80;99.90
45319;DHT22;31057;48.498;32.260;2023-02-19T09:53:53;6.80;99.90
45319;DHT22;31057;48.498;32.260;2023-02-19T09:55:55;7.00;99.90
45319;DHT22;31057;48.498;32.260;2023-02-19T09:57:58;7.00;99.90
45319;DHT22;31057;48.498;32.260;2023-02-19T10:02:24;6.40;99.90
45319;DHT22;31057;48.498;32.260;2023-02-19T10:04:26;6.40;99.90
45319;DHT22;31057;48.498;32.260;2023-02-19T10:06:30;6.00;99.90
45319;DHT22;31057;48.498;32.260;2023-02-19T10:08:34;6.50;99.90
45319;DHT22;31057;48.498;32.260;2023-02-19T10:10:36;6.50;99.90
45319;DHT22;31057;48.498;32.260;2023-02-19T10:12:42;6.10;99.90
45319;DHT22;31057;48.498;32.260;2023-02-19T10:14:49;6.30;99.90
45319;DHT22;31057;48.498;32.260;2023-02-19T10:16:51;6.40;99.90
45319;DHT22;31057;48.498;32.260;2023-02-19T10:18:54;6.60;99.90
45319;DHT22;31057;48.498;32.260;2023-02-19T10:20:57;6.40;99.90
45319;DHT22;31057;48.498;32.260;2023-02-19T10:23:05;6.60;99.90
45319;DHT22;31057;48.498;32.260;2023-02-19T10:25:12;6.00;99.90
45319;DHT22;31057;48.498;32.260;2023-02-19T10:27:15;5.90;99.90
45319;DHT22;31057;48.498;32.260;2023-02-19T10:29:17;6.10;99.90
45319;DHT22;31057;48.498;32.260;2023-02-19T10:31:22;6.30;99.90
45319;DHT22;31057;48.498;32.260;2023-02-19T10:33:26;6.50;99.90
45319;DHT22;31057;48.498;32.260;2023-02-19T10:35:28;6.40;99.90
45319;DHT22;31057;48.498;32.260;2023-02-19T10:37:31;6.60;99.90
45319;DHT22;31057;48.498;32.260;2023-02-19T10:39:36;6.70;99.90
45319;DHT22;31057;48.498;32.260;2023-02-19T10:41:40;6.50;99.90
45319;DHT22;31057;48.498;32.260;2023-02-19T10:43:54;6.50;99.90
45319;DHT22;31057;48.498;32.260;2023-02-19T10:45:58;6.50;99.90
45319;DHT22;31057;48.498;32.260;2023-02-19T10:48:02;6.50;99.90
45319;DHT22;31057;48.498;32.260;2023-02-19T10:50:05;6.60;99.90
45319;DHT22;31057;48.498;32.260;2023-02-19T10:52:14;6.80;99.90
45319;DHT22;31057;48.498;32.260;2023-02-19T10:56:27;7.20;99.90
45319;DHT22;31057;48.498;32.260;2023-02-19T10:58:31;7.40;99.90
45319;DHT22;31057;48.498;32.260;2023-02-19T11:00:35;7.50;99.90
45319;DHT22;31057;48.498;32.260;2023-02-19T11:02:37;7.30;99.90
45319;DHT22;31057;48.498;32.260;2023-02-19T11:04:39;6.80;99.90
45319;DHT22;31057;48.498;32.260;2023-02-19T11:06:41;7.30;99.90
45319;DHT22;31057;48.498;32.260;2023-02-19T11:08:49;7.50;99.90
45319;DHT22;31057;48.498;32.260;2023-02-19T11:10:52;7.00;99.90
45319;DHT22;31057;48.498;32.260;2023-02-19T11:12:58;6.60;99.90
45319;DHT22;31057;48.498;32.260;2023-02-19T11:15:27;6.20;99.90
45319;DHT22;31057;48.498;32.260;2023-02-19T11:17:30;6.50;99.90
45319;DHT22;31057;48.498;32.260;2023-02-19T11:19:41;6.70;99.90
45319;DHT22;31057;48.498;32.260;2023-02-19T11:21:43;6.30;99.90
45319;DHT22;31057;48.498;32.260;2023-02-19T11:23:46;6.60;99.90
45319;DHT22;31057;48.498;32.260;2023-02-19T11:25:49;6.40;99.90
45319;DHT22;31057;48.498;32.260;2023-02-19T11:28:05;6.70;99.90
45319;DHT22;31057;48.498;32.260;2023-02-19T11:30:31;6.80;99.90
45319;DHT22;31057;48.498;32.260;2023-02-19T11:32:36;6.80;99.90
45319;DHT22;31057;48.498;32.260;2023-02-19T11:34:38;6.70;99.90
45319;DHT22;31057;48.498;32.260;2023-02-19T11:36:41;6.80;99.90
45319;DHT22;31057;48.498;32.260;2023-02-19T11:38:43;6.50;99.90
45319;DHT22;31057;48.498;32.260;2023-02-19T11:41:07;6.20;99.90
45319;DHT22;31057;48.498;32.260;2023-02-19T11:43:30;6.00;99.90
45319;DHT22;31057;48.498;32.260;2023-02-19T11:45:43;6.10;99.90
45319;DHT22;31057;48.498;32.260;2023-02-19T11:50:25;6.80;99.90
45319;DHT22;31057;48.498;32.260;2023-02-19T11:55:17;6.70;99.90
45319;DHT22;31057;48.498;32.260;2023-02-19T12:00:13;6.30;99.90
45319;DHT22;31057;48.498;32.260;2023-02-19T12:07:22;6.00;99.90
45319;DHT22;31057;48.498;32.260;2023-02-19T12:11:48;6.30;99.90
45319;DHT22;31057;48.498;32.260;2023-02-19T12:16:45;6.20;99.90
45319;DHT22;31057;48.498;32.260;2023-02-19T12:21:23;6.10;99.90
45319;DHT22;31057;48.498;32.260;2023-02-19T12:35:23;6.40;99.90
45319;DHT22;31057;48.498;32.260;2023-02-19T12:44:41;6.30;99.90
45319;DHT22;31057;48.498;32.260;2023-02-19T12:46:48;6.40;99.90
45319;DHT22;31057;48.498;32.260;2023-02-19T12:53:44;6.70;99.90
45319;DHT22;31057;48.498;32.260;2023-02-19T12:55:47;6.80;99.90
45319;DHT22;31057;48.498;32.260;2023-02-19T12:57:49;6.20;99.90
45319;DHT22;31057;48.498;32.260;2023-02-19T12:59:59;6.20;99.90
45319;DHT22;31057;48.498;32.260;2023-02-19T13:02:22;6.40;99.90
45319;DHT22;31057;48.498;32.260;2023-02-19T13:04:41;6.10;99.90
45319;DHT22;31057;48.498;32.260;2023-02-19T13:07:00;6.20;99.90
45319;DHT22;31057;48.498;32.260;2023-02-19T13:09:35;6.00;99.90
45319;DHT22;31057;48.498;32.260;2023-02-19T13:11:45;5.90;99.90
45319;DHT22;31057;48.498;32.260;2023-02-19T13:13:54;6.10;99.90
45319;DHT22;31057;48.498;32.260;2023-02-19T13:16:04;6.10;99.90
45319;DHT22;31057;48.498;32.260;2023-02-19T13:18:24;6.40;99.90
45319;DHT22;31057;48.498;32.260;2023-02-19T13:20:47;6.10;99.90
45319;DHT22;31057;48.498;32.260;2023-02-19T13:25:18;6.00;99.90
45319;DHT22;31057;48.498;32.260;2023-02-19T13:27:41;6.10;99.90
45319;DHT22;31057;48.498;32.260;2023-02-19T13:36:48;6.00;99.90
45319;DHT22;31057;48.498;32.260;2023-02-19T13:38:50;5.90;99.90
45319;DHT22;31057;48.498;32.260;2023-02-19T13:40:53;6.00;99.90
45319;DHT22;31057;48.498;32.260;2023-02-19T13:42:58;6.10;99.90
45319;DHT22;31057;48.498;32.260;2023-02-19T13:45:04;5.80;99.90
45319;DHT22;31057;48.498;32.260;2023-02-19T13:49:50;5.90;99.90
45319;DHT22;31057;48.498;32.260;2023-02-19T13:52:00;5.70;99.90
45319;DHT22;31057;48.498;32.260;2023-02-19T13:54:13;5.90;99.90
45319;DHT22;31057;48.498;32.260;2023-02-19T14:00:50;6.10;99.90
45319;DHT22;31057;48.498;32.260;2023-02-19T14:03:25;6.40;99.90
45319;DHT22;31057;48.498;32.260;2023-02-19T14:06:05;6.40;99.90
45319;DHT22;31057;48.498;32.260;2023-02-19T14:08:08;6.30;99.90
45319;DHT22;31057;48.498;32.260;2023-02-19T14:10:11;6.10;99.90
45319;DHT22;31057;48.498;32.260;2023-02-19T14:18:44;6.30;99.90
45319;DHT22;31057;48.498;32.260;2023-02-19T14:20:47;5.90;99.90
45319;DHT22;31057;48.498;32.260;2023-02-19T14:22:58;6.00;99.90
45319;DHT22;31057;48.498;32.260;2023-02-19T14:25:05;5.80;99.90
45319;DHT22;31057;48.498;32.260;2023-02-19T14:27:09;6.00;99.90
45319;DHT22;31057;48.498;32.260;2023-02-19T14:29:13;5.90;99.90
45319;DHT22;31057;48.498;32.260;2023-02-19T14:31:18;6.00;99.90
45319;DHT22;31057;48.498;32.260;2023-02-19T14:33:28;5.70;99.90
45319;DHT22;31057;48.498;32.260;2023-02-19T14:35:40;5.70;99.90
45319;DHT22;31057;48.498;32.260;2023-02-19T14:37:44;5.60;99.90
45319;DHT22;31057;48.498;32.260;2023-02-19T14:39:47;5.60;99.90
45319;DHT22;31057;48.498;32.260;2023-02-19T14:41:56;5.80;99.90
45319;DHT22;31057;48.498;32.260;2023-02-19T14:44:00;5.80;99.90
45319;DHT22;31057;48.498;32.260;2023-02-19T14:46:12;5.70;99.90
45319;DHT22;31057;48.498;32.260;2023-02-19T14:48:25;5.60;99.90
45319;DHT22;31057;48.498;32.260;2023-02-19T14:50:30;5.40;99.90
45319;DHT22;31057;48.498;32.260;2023-02-19T14:52:41;5.50;99.90